createdAt,value
2018-06-20T00:00:02.853Z,5.37
2018-06-20T00:02:35.976Z,6.07
2018-06-20T00:05:09.082Z,5.43
2018-06-20T00:07:42.777Z,4.53
2018-06-20T00:10:15.833Z,4.50
2018-06-20T00:12:48.953Z,3.87
2018-06-20T00:15:22.213Z,4.50
2018-06-20T00:17:55.716Z,3.70
2018-06-20T00:20:29.810Z,4.43
2018-06-20T00:23:03.007Z,4.87
2018-06-20T00:25:36.775Z,3.83
2018-06-20T00:28:09.856Z,3.50
2018-06-20T00:30:42.993Z,3.77
2018-06-20T00:33:17.176Z,3.37
2018-06-20T00:35:50.448Z,4.07
2018-06-20T00:38:23.868Z,4.30
2018-06-20T00:40:56.894Z,3.50
2018-06-20T00:43:30.110Z,4.20
2018-06-20T00:46:03.303Z,4.07
2018-06-20T00:48:36.545Z,4.90
2018-06-20T00:51:09.855Z,4.67
2018-06-20T00:53:43.067Z,3.93
2018-06-20T00:56:27.093Z,4.33
2018-06-20T00:59:01.190Z,4.17
2018-06-20T01:01:34.484Z,4.33
2018-06-20T01:04:07.647Z,4.53
2018-06-20T01:06:41.102Z,5.03
2018-06-20T01:09:14.143Z,5.20
2018-06-20T01:11:47.344Z,5.77
2018-06-20T01:14:20.474Z,6.47
2018-06-20T01:16:53.549Z,7.50
2018-06-20T01:19:26.758Z,6.40
2018-06-20T01:21:59.814Z,6.73
2018-06-20T01:24:32.956Z,6.33
2018-06-20T01:27:06.181Z,5.70
2018-06-20T01:58:45.106Z,7.17
2018-06-20T02:01:18.229Z,6.33
2018-06-20T02:03:51.343Z,5.37
2018-06-20T02:06:24.397Z,6.53
2018-06-20T02:08:59.934Z,5.77
2018-06-20T02:11:36.232Z,5.60
2018-06-20T02:14:10.127Z,5.33
2018-06-20T02:16:43.188Z,5.60
2018-06-20T02:19:16.266Z,5.60
2018-06-20T02:21:49.357Z,4.70
2018-06-20T02:24:22.448Z,5.77
2018-06-20T02:26:55.572Z,7.50
2018-06-20T02:29:28.793Z,6.60
2018-06-20T02:32:01.917Z,7.47
2018-06-20T02:34:35.032Z,8.47
2018-06-20T02:37:08.165Z,9.23
2018-06-20T02:39:41.263Z,9.60
2018-06-20T02:42:14.393Z,8.33
2018-06-20T02:44:47.692Z,10.07
2018-06-20T02:47:24.949Z,10.00
2018-06-20T02:49:58.009Z,10.50
2018-06-20T02:52:31.087Z,8.90
2018-06-20T02:55:04.070Z,11.43
2018-06-20T02:57:37.280Z,10.70
2018-06-20T03:00:10.385Z,9.07
2018-06-20T03:02:43.485Z,12.83
2018-06-20T03:05:19.242Z,12.57
2018-06-20T03:07:53.127Z,11.60
2018-06-20T03:10:26.205Z,11.27
2018-06-20T03:12:59.307Z,10.53
2018-06-20T03:15:32.416Z,9.53
2018-06-20T03:18:05.633Z,9.80
2018-06-20T03:20:38.732Z,9.90
2018-06-20T03:23:11.815Z,8.00
2018-06-20T03:25:45.013Z,9.00
2018-06-20T03:28:18.083Z,9.40
2018-06-20T03:30:51.153Z,10.13
2018-06-20T03:33:24.355Z,9.30
2018-06-20T03:35:57.460Z,9.17
2018-06-20T03:38:30.509Z,10.03
2018-06-20T03:41:03.646Z,8.27
2018-06-20T03:43:36.732Z,8.70
2018-06-20T03:46:09.895Z,7.87
2018-06-20T03:48:42.955Z,7.07
2018-06-20T03:51:16.028Z,5.90
2018-06-20T03:53:57.944Z,4.67
2018-06-20T03:56:31.324Z,4.87
2018-06-20T03:59:04.791Z,3.97
2018-06-20T04:01:37.931Z,4.33
2018-06-20T04:04:11.316Z,3.63
2018-06-20T04:06:44.697Z,4.13
2018-06-20T04:09:17.829Z,3.20
2018-06-20T04:11:52.816Z,4.20
2018-06-20T04:14:25.903Z,3.60
2018-06-20T04:17:00.123Z,3.67
2018-06-20T04:19:33.254Z,3.60
2018-06-20T04:22:06.297Z,3.10
2018-06-20T04:24:40.500Z,2.50
2018-06-20T04:27:13.672Z,2.40
2018-06-20T04:29:46.792Z,2.50
2018-06-20T04:32:19.804Z,3.07
2018-06-20T04:34:52.973Z,2.43
2018-06-20T04:37:26.118Z,2.37
2018-06-20T04:39:59.289Z,2.53
2018-06-20T04:42:32.448Z,2.33
2018-06-20T04:45:06.340Z,2.10
2018-06-20T04:47:39.639Z,2.20
2018-06-20T04:50:12.706Z,2.43
2018-06-20T04:52:45.732Z,2.40
2018-06-20T04:55:18.792Z,2.37
2018-06-20T04:57:52.454Z,2.27
2018-06-20T05:00:25.591Z,2.77
2018-06-20T05:02:58.766Z,2.53
2018-06-20T05:05:31.914Z,2.43
2018-06-20T05:08:05.057Z,2.60
2018-06-20T05:10:38.128Z,1.90
2018-06-20T05:13:11.186Z,3.00
2018-06-20T05:15:44.350Z,2.70
2018-06-20T05:18:17.647Z,2.80
2018-06-20T05:20:50.689Z,3.10
2018-06-20T05:23:23.717Z,2.60
2018-06-20T05:25:56.774Z,2.90
2018-06-20T05:28:29.965Z,2.60
2018-06-20T05:31:03.558Z,2.47
2018-06-20T05:33:36.804Z,3.03
2018-06-20T05:36:09.941Z,2.37
2018-06-20T05:38:43.101Z,2.97
2018-06-20T05:41:14.807Z,2.97
2018-06-20T05:43:47.880Z,3.13
2018-06-20T05:46:20.913Z,3.60
2018-06-20T05:48:53.988Z,4.17
2018-06-20T05:51:28.168Z,4.57
2018-06-20T05:54:01.396Z,3.53
2018-06-20T05:56:34.509Z,4.93
2018-06-20T05:59:07.791Z,4.40
2018-06-20T06:01:41.093Z,4.57
2018-06-20T06:04:14.125Z,4.20
2018-06-20T06:06:48.234Z,4.43
2018-06-20T06:09:22.358Z,4.90
2018-06-20T06:11:56.360Z,4.60
2018-06-20T06:14:29.547Z,5.23
2018-06-20T06:17:02.784Z,5.07
2018-06-20T06:19:36.037Z,3.93
2018-06-20T06:22:09.835Z,4.27
2018-06-20T06:24:41.557Z,3.83
2018-06-20T06:27:14.680Z,4.33
2018-06-20T06:29:47.781Z,3.43
2018-06-20T06:32:20.937Z,3.20
2018-06-20T06:34:54.071Z,2.77
2018-06-20T06:37:27.152Z,2.67
2018-06-20T06:40:00.304Z,2.60
2018-06-20T06:42:33.437Z,2.63
2018-06-20T06:45:07.486Z,3.30
2018-06-20T06:47:40.532Z,3.23
2018-06-20T06:50:13.807Z,3.70
2018-06-20T06:52:47.325Z,3.43
2018-06-20T06:55:20.434Z,3.20
2018-06-20T06:57:58.739Z,3.50
2018-06-20T07:00:31.862Z,4.13
2018-06-20T07:03:05.219Z,4.63
2018-06-20T07:05:42.384Z,4.30
2018-06-20T07:08:15.656Z,4.40
2018-06-20T07:10:48.849Z,5.63
2018-06-20T07:13:22.111Z,5.10
2018-06-20T07:15:54.692Z,4.93
2018-06-20T07:18:27.772Z,4.93
2018-06-20T07:21:00.895Z,5.80
2018-06-20T07:23:34.748Z,4.57
2018-06-20T07:26:07.872Z,5.43
2018-06-20T07:28:41.000Z,5.03
2018-06-20T07:31:15.024Z,6.10
2018-06-20T07:33:48.242Z,5.10
2018-06-20T07:36:21.470Z,5.33
2018-06-20T07:38:54.617Z,5.37
2018-06-20T07:41:28.001Z,5.00
2018-06-20T07:44:01.155Z,5.33
2018-06-20T07:46:32.886Z,5.50
2018-06-20T07:49:05.996Z,5.53
2018-06-20T07:51:39.103Z,5.43
2018-06-20T07:54:12.189Z,5.00
2018-06-20T07:56:45.451Z,5.70
2018-06-20T07:59:18.550Z,5.17
2018-06-20T08:04:10.073Z,4.97
2018-06-20T08:06:47.101Z,4.80
2018-06-20T08:09:24.165Z,4.63
2018-06-20T08:12:01.269Z,4.90
2018-06-20T08:14:38.420Z,4.30
2018-06-20T08:19:17.742Z,4.40
2018-06-20T08:21:50.823Z,3.60
2018-06-20T08:24:23.892Z,4.23
2018-06-20T08:26:57.015Z,4.23
2018-06-20T08:29:30.200Z,4.30
2018-06-20T08:32:02.257Z,4.27
2018-06-20T08:34:36.725Z,4.20
2018-06-20T08:37:10.802Z,4.10
2018-06-20T08:39:44.600Z,3.97
2018-06-20T08:42:17.789Z,3.93
2018-06-20T08:44:51.718Z,3.67
2018-06-20T08:47:26.532Z,3.50
2018-06-20T08:49:59.626Z,3.90
2018-06-20T08:52:32.769Z,3.90
2018-06-20T08:55:05.921Z,3.97
2018-06-20T08:57:38.929Z,3.77
2018-06-20T09:00:10.716Z,4.77
2018-06-20T09:05:26.445Z,4.20
2018-06-20T09:08:03.921Z,4.80
2018-06-20T09:10:41.690Z,4.73
2018-06-20T09:13:19.188Z,5.40
2018-06-20T09:15:56.743Z,4.50
2018-06-20T09:18:34.042Z,5.23
2018-06-20T09:21:07.130Z,5.87
2018-06-20T09:23:40.452Z,6.80
2018-06-20T09:26:17.442Z,7.80
2018-06-20T09:28:51.131Z,7.30
2018-06-20T09:31:25.326Z,7.40
2018-06-20T09:33:58.530Z,7.63
2018-06-20T09:36:31.871Z,5.90
2018-06-20T09:39:06.869Z,5.87
2018-06-20T09:41:40.375Z,6.03
2018-06-20T09:44:12.058Z,6.80
2018-06-20T09:46:45.283Z,7.00
2018-06-20T09:49:18.452Z,5.77
2018-06-20T09:51:51.665Z,6.17
2018-06-20T09:54:25.376Z,6.07
2018-06-20T09:56:59.488Z,5.70
2018-06-20T09:59:36.556Z,5.73
2018-06-20T10:02:13.854Z,5.90
2018-06-20T10:04:51.190Z,6.27
2018-06-20T10:07:27.304Z,6.17
2018-06-20T10:10:04.612Z,6.37
2018-06-20T10:12:42.044Z,5.30
2018-06-20T10:15:15.211Z,6.33
2018-06-20T10:17:48.429Z,6.67
2018-06-20T10:20:25.653Z,7.70
2018-06-20T10:23:00.704Z,7.40
2018-06-20T10:25:33.939Z,6.43
2018-06-20T10:28:07.097Z,6.03
2018-06-20T10:30:40.173Z,6.77
2018-06-20T10:33:17.190Z,6.60
2018-06-20T10:35:50.321Z,6.93
2018-06-20T10:38:23.564Z,6.73
2018-06-20T10:40:56.858Z,7.63
2018-06-20T10:43:30.177Z,8.17
2018-06-20T10:46:07.455Z,7.70
2018-06-20T10:48:40.951Z,7.93
2018-06-20T10:51:14.241Z,6.70
2018-06-20T10:53:47.543Z,7.50
2018-06-20T10:56:24.760Z,7.43
2018-06-20T10:59:02.012Z,7.47
2018-06-20T11:01:41.556Z,8.10
2018-06-20T11:04:23.600Z,7.90
2018-06-20T11:07:00.961Z,7.47
2018-06-20T11:09:43.465Z,7.17
2018-06-20T11:12:35.750Z,7.60
2018-06-20T11:15:19.808Z,7.30
2018-06-20T11:23:36.417Z,7.10
2018-06-20T11:26:11.099Z,8.53
2018-06-20T11:28:48.109Z,9.03
2018-06-20T11:31:22.636Z,8.90
2018-06-20T11:33:57.605Z,8.73
2018-06-20T11:36:31.642Z,8.47
2018-06-20T11:39:06.264Z,9.87
2018-06-20T11:41:42.916Z,8.67
2018-06-20T11:44:26.068Z,8.63
2018-06-20T11:47:04.572Z,8.70
2018-06-20T11:49:38.548Z,8.40
2018-06-20T11:52:17.365Z,8.60
2018-06-20T11:54:50.656Z,9.40
2018-06-20T11:57:24.875Z,9.63
2018-06-20T12:00:04.025Z,9.50
2018-06-20T12:02:41.455Z,8.50
2018-06-20T12:05:18.901Z,8.80
2018-06-20T12:08:01.510Z,8.10
2018-06-20T12:10:38.785Z,8.60
2018-06-20T12:13:16.057Z,8.53
2018-06-20T12:16:25.456Z,9.00
2018-06-20T12:19:05.080Z,9.03
2018-06-20T12:21:42.324Z,8.63
2018-06-20T12:24:19.524Z,9.10
2018-06-20T12:26:56.729Z,8.83
2018-06-20T12:29:33.929Z,8.50
2018-06-20T12:32:12.409Z,9.13
2018-06-20T12:34:49.391Z,8.50
2018-06-20T12:37:27.080Z,9.20
2018-06-20T12:41:14.398Z,8.60
2018-06-20T12:43:51.899Z,9.50
2018-06-20T12:46:29.902Z,8.53
2018-06-20T12:49:03.046Z,9.00
2018-06-20T12:51:36.506Z,8.77
2018-06-20T12:54:10.946Z,8.83
2018-06-20T12:56:44.314Z,9.43
2018-06-20T12:59:21.183Z,9.10
2018-06-20T13:01:55.037Z,9.60
2018-06-20T13:04:29.918Z,9.20
2018-06-20T14:15:30.590Z,8.90
2018-06-20T14:18:03.818Z,10.23
2018-06-20T14:20:42.448Z,10.40
2018-06-20T14:23:15.674Z,10.07
2018-06-20T14:25:48.975Z,10.60
2018-06-20T14:28:22.157Z,11.33
2018-06-20T14:30:59.328Z,10.17
2018-06-20T14:33:36.387Z,10.47
2018-06-20T14:36:13.706Z,10.23
2018-06-20T14:38:51.176Z,10.57
2018-06-20T14:41:26.934Z,10.70
2018-06-20T14:44:04.357Z,10.37
2018-06-20T14:46:38.168Z,9.97
2018-06-20T14:49:11.389Z,11.10
2018-06-20T14:51:44.816Z,10.97
2018-06-20T14:54:18.451Z,11.83
2018-06-20T14:56:51.734Z,11.60
2018-06-20T14:59:25.026Z,11.90
2018-06-20T15:01:58.521Z,11.80
2018-06-20T15:04:31.820Z,11.87
2018-06-20T15:07:05.661Z,11.80
2018-06-20T15:09:38.712Z,10.53
2018-06-20T15:12:12.018Z,11.03
2018-06-20T15:14:45.150Z,10.40
2018-06-20T15:17:22.453Z,11.07
2018-06-20T15:19:55.621Z,10.97
2018-06-20T15:22:32.053Z,10.10
2018-06-20T15:25:05.767Z,12.00
2018-06-20T15:27:43.105Z,11.17
2018-06-20T15:30:20.230Z,12.17
2018-06-20T15:32:57.378Z,12.47
2018-06-20T15:37:38.238Z,11.30
2018-06-20T15:40:11.581Z,11.60
2018-06-20T15:42:44.803Z,12.07
2018-06-20T15:45:18.067Z,12.27
2018-06-20T15:47:51.248Z,12.30
2018-06-20T15:50:24.389Z,11.33
2018-06-20T15:52:57.470Z,11.53
2018-06-20T15:55:30.557Z,12.47
2018-06-20T15:58:03.788Z,12.80
2018-06-20T16:00:36.866Z,11.57
2018-06-20T16:03:10.109Z,11.23
2018-06-20T16:05:43.184Z,11.40
2018-06-20T16:08:16.565Z,11.00
2018-06-20T16:10:49.589Z,11.40
2018-06-20T16:13:22.783Z,12.40
2018-06-20T16:15:55.832Z,11.80
2018-06-20T16:18:28.912Z,12.87
2018-06-20T16:21:06.365Z,12.10
2018-06-20T16:23:43.720Z,11.90
2018-06-20T16:26:20.972Z,11.60
2018-06-20T16:28:58.325Z,11.80
2018-06-20T16:31:31.453Z,11.03
2018-06-20T16:34:04.580Z,10.77
2018-06-20T16:36:37.647Z,10.83
2018-06-20T16:39:12.391Z,10.60
2018-06-20T16:41:45.540Z,12.10
2018-06-20T16:44:17.364Z,11.35
2018-06-20T16:46:50.689Z,12.40
2018-06-20T16:49:28.890Z,11.77
2018-06-20T16:55:04.581Z,12.20
2018-06-20T17:00:17.690Z,12.70
2018-06-20T17:02:50.752Z,14.60
2018-06-20T17:05:26.201Z,12.53
2018-06-20T17:08:01.984Z,12.50
2018-06-20T17:10:33.804Z,13.37
2018-06-20T17:13:12.572Z,13.57
2018-06-20T17:15:51.315Z,13.23
2018-06-20T17:18:28.459Z,14.77
2018-06-20T17:21:15.170Z,14.77
2018-06-20T17:23:56.655Z,15.07
2018-06-20T17:26:30.696Z,16.40
2018-06-20T17:29:09.836Z,17.67
2018-06-20T17:31:43.343Z,18.77
2018-06-20T17:34:19.065Z,18.83
2018-06-20T17:36:59.420Z,20.13
2018-06-20T17:39:35.617Z,17.80
2018-06-20T17:42:09.060Z,19.90
2018-06-20T17:44:42.396Z,19.23
2018-06-20T17:47:15.800Z,18.97
2018-06-20T17:49:50.944Z,17.50
2018-06-20T17:52:24.080Z,16.27
2018-06-20T17:54:57.236Z,17.50
2018-06-20T17:57:35.146Z,18.17
2018-06-20T18:00:09.238Z,17.30
2018-06-20T18:02:45.057Z,17.70
2018-06-20T18:05:23.470Z,16.50
2018-06-20T18:08:00.852Z,17.30
2018-06-20T18:10:38.093Z,18.03
2018-06-20T18:13:15.060Z,15.80
2018-06-20T18:15:53.193Z,15.50
2018-06-20T18:18:27.802Z,13.43
2018-06-20T18:21:01.168Z,15.33
2018-06-20T18:23:44.213Z,14.27
2018-06-20T18:26:19.059Z,13.67
2018-06-20T18:28:58.480Z,15.03
2018-06-20T18:31:31.516Z,14.47
2018-06-20T18:34:04.952Z,15.17
2018-06-20T18:36:38.020Z,14.77
2018-06-20T18:39:13.569Z,13.80
2018-06-20T18:44:27.638Z,14.37
2018-06-20T18:47:00.793Z,13.13
2018-06-20T18:49:34.174Z,14.37
2018-06-20T18:52:07.322Z,14.03
2018-06-20T18:54:45.792Z,13.03
2018-06-20T18:57:23.408Z,12.83
2018-06-20T19:00:01.279Z,13.80
2018-06-20T19:02:40.376Z,12.03
2018-06-20T19:05:17.569Z,11.73
2018-06-20T19:07:54.765Z,12.80
2018-06-20T19:10:28.512Z,11.33
2018-06-20T19:13:01.735Z,12.40
2018-06-20T19:15:36.364Z,11.10
2018-06-20T19:18:14.850Z,10.50
2018-06-20T19:20:48.004Z,10.63
2018-06-20T19:23:24.242Z,10.40
2018-06-20T19:25:59.176Z,10.23
2018-06-20T19:28:32.342Z,9.97
2018-06-20T19:31:10.948Z,11.30
2018-06-20T19:36:31.409Z,9.70
2018-06-20T19:40:08.389Z,10.10
2018-06-20T19:42:41.449Z,9.77
2018-06-20T19:45:14.553Z,11.07
2018-06-20T19:47:47.761Z,10.50
2018-06-20T19:50:22.874Z,10.73
2018-06-20T19:52:59.581Z,11.30
2018-06-20T19:55:39.465Z,12.27
2018-06-20T19:58:13.562Z,13.07
2018-06-20T20:00:50.189Z,12.67
2018-06-20T20:03:25.583Z,11.47
2018-06-20T20:05:58.668Z,11.20
2018-06-20T20:08:39.302Z,10.40
2018-06-20T20:11:21.048Z,11.03
2018-06-20T20:13:56.133Z,11.03
2018-06-20T20:16:29.277Z,10.27
2018-06-20T20:19:02.111Z,10.30
2018-06-20T20:21:38.770Z,11.30
2018-06-20T20:24:13.691Z,12.57
2018-06-20T20:26:48.430Z,10.80
2018-06-20T20:29:21.607Z,10.80
2018-06-20T20:31:54.709Z,11.13
2018-06-20T20:34:28.640Z,10.27
2018-06-20T20:37:01.729Z,11.20
2018-06-20T20:39:35.093Z,11.40
2018-06-20T20:42:08.201Z,11.30
2018-06-20T20:44:48.570Z,10.73
2018-06-20T20:47:22.573Z,10.53
2018-06-20T20:49:56.869Z,10.40
2018-06-20T20:52:30.328Z,10.97
2018-06-20T20:55:15.562Z,11.10
2018-06-20T20:57:51.402Z,11.60
2018-06-20T21:00:24.418Z,11.60
2018-06-20T21:03:07.396Z,10.20
2018-06-20T21:05:40.489Z,9.83
2018-06-20T21:08:13.514Z,9.80
2018-06-20T21:10:46.653Z,11.27
2018-06-20T21:13:19.716Z,13.03
2018-06-20T21:15:53.812Z,12.27
2018-06-20T21:18:27.817Z,14.57
2018-06-20T21:21:01.086Z,17.03
2018-06-20T21:23:37.993Z,16.60
2018-06-20T21:26:11.131Z,16.30
2018-06-20T21:28:44.221Z,15.47
2018-06-20T21:31:20.295Z,13.70
2018-06-20T21:33:54.895Z,16.00
2018-06-20T21:36:27.981Z,15.10
2018-06-20T21:39:13.093Z,14.23
2018-06-20T21:41:46.280Z,15.50
2018-06-20T21:44:35.284Z,15.33
2018-06-20T21:49:55.874Z,14.70
2018-06-20T21:52:30.802Z,15.03
2018-06-20T21:55:08.613Z,13.60
2018-06-20T21:57:46.942Z,13.90
2018-06-20T22:00:19.968Z,13.60
2018-06-20T22:02:53.136Z,13.77
2018-06-20T22:05:26.448Z,13.30
2018-06-20T22:07:59.590Z,13.10
2018-06-20T22:10:32.819Z,13.73
2018-06-20T22:13:05.907Z,13.07
2018-06-20T22:15:41.931Z,14.20
2018-06-20T22:18:15.356Z,14.77
2018-06-20T22:20:48.493Z,14.33
2018-06-20T22:23:21.598Z,15.33
2018-06-20T22:25:54.842Z,15.63
2018-06-20T22:28:37.145Z,13.97
2018-06-20T22:31:10.273Z,15.20
2018-06-20T22:33:43.689Z,13.80
2018-06-20T22:36:15.432Z,13.87
2018-06-20T22:38:48.842Z,12.27
2018-06-20T22:41:26.874Z,12.27
2018-06-20T22:44:01.957Z,12.50
2018-06-20T22:46:35.759Z,13.30
2018-06-20T22:51:54.537Z,13.00
2018-06-20T22:54:27.658Z,13.70
2018-06-20T22:57:00.698Z,11.80
2018-06-20T22:59:33.881Z,11.63
2018-06-20T23:02:08.155Z,12.30
2018-06-20T23:04:41.365Z,11.50
2018-06-20T23:07:14.465Z,10.80
2018-06-20T23:09:47.557Z,11.10
2018-06-20T23:12:20.841Z,11.20
2018-06-20T23:14:56.440Z,12.03
2018-06-20T23:17:32.545Z,9.80
2018-06-20T23:20:06.985Z,10.00
2018-06-20T23:22:40.211Z,10.27
2018-06-20T23:25:17.019Z,10.80
2018-06-20T23:27:50.098Z,10.43
2018-06-20T23:30:24.373Z,10.47
2018-06-20T23:33:00.707Z,9.70
2018-06-20T23:35:34.920Z,10.67
2018-06-20T23:38:08.323Z,11.03
2018-06-20T23:40:49.195Z,10.20
2018-06-20T23:43:22.390Z,9.77
2018-06-20T23:45:57.233Z,10.60
2018-06-20T23:48:41.026Z,9.70
2018-06-20T23:51:14.195Z,8.40
2018-06-20T23:53:48.033Z,9.80
2018-06-20T23:56:24.275Z,10.17
